YFE weather

Forestville Airport
Forestville, Quebec, Canada

Public forecast

Using degrees Celsius for public forecast. Weather courtesy of forecast.io.

Closest aviation weather report (METAR) to Forestville Airport

Closest report is Mont Joli Airport, 36.2 nm (67.0 km) ESE. Retrieved 2019/10/23 09:00 UTC (8 minutes ago):

CYYY 230900Z 18010G15KT 100V190 30SM OVC150 08/03 A3004 RMK AC8 SLP175

Closest aviation forecast (TAF) to Forestville Airport

Closest forecast is Mont Joli Airport, 36.2 nm (67.0 km) ESE. Retrieved 2019/10/23 08:00 UTC (1 hour ago):

TAF CYYY 230738Z 2308/2320 16010G20KT P6SM SCT015 BKN080 TEMPO 2308/2311 P6SM -SHRA BKN015 BKN080 BECMG 2308/2310 10010G20KT FM231100 08012G22KT 4SM RA BR BKN008 OVC015 TEMPO 2311/2315 P6SM -RA SCT008 OVC015 PROB30 2311/2315 2SM RA BR OVC004 FM231500 05012G22KT 2SM RA BR OVC004 BECMG 2317/2319 08015KT RMK NXT FCST BY 231400Z